createdAt,value
2019-05-21T00:00:27.160Z,6.83
2019-05-21T00:02:57.065Z,7.20
2019-05-21T00:05:27.337Z,6.87
2019-05-21T00:07:57.194Z,7.03
2019-05-21T00:10:27.474Z,6.92
2019-05-21T00:12:57.336Z,6.25
2019-05-21T00:15:27.145Z,6.20
2019-05-21T00:17:58.078Z,6.83
2019-05-21T00:20:28.411Z,6.67
2019-05-21T00:22:58.534Z,6.42
2019-05-21T00:25:28.754Z,7.10
2019-05-21T00:28:20.698Z,6.92
2019-05-21T00:31:27.024Z,7.25
2019-05-21T00:34:14.958Z,6.70
2019-05-21T00:37:04.264Z,7.17
2019-05-21T00:40:10.641Z,6.55
2019-05-21T00:42:44.014Z,6.22
2019-05-21T00:45:15.690Z,6.50
2019-05-21T00:47:46.589Z,6.50
2019-05-21T00:50:17.247Z,6.72
2019-05-21T00:52:48.797Z,6.47
2019-05-21T00:55:19.284Z,6.42
2019-05-21T00:57:50.629Z,6.92
2019-05-21T01:00:21.615Z,7.05
2019-05-21T01:02:53.457Z,6.47
2019-05-21T01:05:24.943Z,6.83
2019-05-21T01:07:57.075Z,6.50
2019-05-21T01:10:28.299Z,6.37
2019-05-21T01:13:00.577Z,6.15
2019-05-21T01:15:31.311Z,6.30
2019-05-21T01:18:02.662Z,6.53
2019-05-21T01:20:33.865Z,6.20
2019-05-21T01:23:05.214Z,6.10
2019-05-21T01:25:35.063Z,6.50
2019-05-21T01:28:05.057Z,6.03
2019-05-21T01:30:35.259Z,5.40
2019-05-21T01:33:05.293Z,5.67
2019-05-21T01:35:35.873Z,6.17
2019-05-21T01:38:05.661Z,4.95
2019-05-21T01:40:35.422Z,5.95
2019-05-21T01:43:05.308Z,5.30
2019-05-21T01:45:35.507Z,5.10
2019-05-21T01:48:05.275Z,5.75
2019-05-21T01:50:35.111Z,5.67
2019-05-21T01:53:04.900Z,6.22
2019-05-21T01:55:35.122Z,6.25
2019-05-21T01:58:04.866Z,5.90
2019-05-21T02:00:34.656Z,6.17
2019-05-21T02:03:04.451Z,6.62
2019-05-21T02:05:34.671Z,6.00
2019-05-21T02:08:04.536Z,5.90
2019-05-21T02:10:34.738Z,5.83
2019-05-21T02:13:04.865Z,5.75
2019-05-21T02:15:34.894Z,6.08
2019-05-21T02:18:04.667Z,5.78
2019-05-21T02:20:35.618Z,5.78
2019-05-21T02:23:06.414Z,5.80
2019-05-21T02:25:36.887Z,5.83
2019-05-21T02:28:07.527Z,6.35
2019-05-21T02:30:42.886Z,6.50
2019-05-21T02:33:14.435Z,6.28
2019-05-21T02:35:54.278Z,5.53
2019-05-21T02:38:17.866Z,5.47
2019-05-21T02:40:49.218Z,5.87
2019-05-21T02:43:20.367Z,5.40
2019-05-21T02:45:52.385Z,5.55
2019-05-21T02:48:22.198Z,5.58
2019-05-21T02:50:52.739Z,5.50
2019-05-21T02:53:22.944Z,5.62
2019-05-21T02:55:52.710Z,6.15
2019-05-21T02:58:22.509Z,5.55
2019-05-21T03:01:23.653Z,6.00
2019-05-21T03:03:54.080Z,5.78
2019-05-21T03:06:23.991Z,5.40
2019-05-21T03:08:54.785Z,5.33
2019-05-21T03:11:25.441Z,5.42
2019-05-21T03:13:55.738Z,5.00
2019-05-21T03:16:25.562Z,5.33
2019-05-21T03:19:00.973Z,5.12
2019-05-21T03:21:30.917Z,5.08
2019-05-21T03:24:00.647Z,5.40
2019-05-21T03:26:30.390Z,5.20
2019-05-21T03:29:00.646Z,5.42
2019-05-21T03:31:30.432Z,4.78
2019-05-21T03:34:00.256Z,5.20
2019-05-21T03:36:34.057Z,5.47
2019-05-21T03:39:05.377Z,4.75
2019-05-21T03:41:36.269Z,4.95
2019-05-21T03:44:07.721Z,4.55
2019-05-21T03:46:38.192Z,4.42
2019-05-21T03:49:09.718Z,5.10
2019-05-21T03:51:41.483Z,4.58
2019-05-21T03:54:12.408Z,4.12
2019-05-21T03:56:43.383Z,4.75
2019-05-21T03:59:14.872Z,4.35
2019-05-21T04:01:45.828Z,4.30
2019-05-21T04:04:16.909Z,5.05
2019-05-21T04:06:53.504Z,4.60
2019-05-21T04:09:27.621Z,4.62
2019-05-21T04:11:58.225Z,4.25
2019-05-21T04:14:42.196Z,4.22
2019-05-21T04:17:36.725Z,4.20
2019-05-21T04:20:07.790Z,4.47
2019-05-21T04:22:40.327Z,4.20
2019-05-21T04:25:11.394Z,4.40
2019-05-21T04:27:43.481Z,3.98
2019-05-21T04:30:14.058Z,4.10
2019-05-21T04:32:44.623Z,4.05
2019-05-21T04:35:15.275Z,4.83
2019-05-21T04:37:45.944Z,3.92
2019-05-21T04:40:17.292Z,5.10
2019-05-21T04:42:48.036Z,4.62
2019-05-21T04:45:18.737Z,5.55
2019-05-21T04:47:49.251Z,5.10
2019-05-21T04:50:20.418Z,5.20
2019-05-21T04:52:52.378Z,5.20
2019-05-21T04:55:24.823Z,5.35
2019-05-21T04:57:55.896Z,5.55
2019-05-21T05:00:27.005Z,5.92
2019-05-21T05:02:57.650Z,5.12
2019-05-21T05:05:29.519Z,5.15
2019-05-21T05:08:00.175Z,5.28
2019-05-21T05:10:31.609Z,5.45
2019-05-21T05:13:02.676Z,5.05
2019-05-21T05:15:36.815Z,4.80
2019-05-21T05:18:07.963Z,4.87
2019-05-21T05:20:37.891Z,4.85
2019-05-21T05:23:07.744Z,4.72
2019-05-21T05:25:38.318Z,4.30
2019-05-21T05:28:09.288Z,4.40
2019-05-21T05:30:39.802Z,4.20
2019-05-21T05:33:10.813Z,4.35
2019-05-21T05:35:40.842Z,4.05
2019-05-21T05:38:10.834Z,4.60
2019-05-21T05:40:41.482Z,4.40
2019-05-21T05:43:11.395Z,4.28
2019-05-21T05:45:42.182Z,4.72
2019-05-21T05:48:14.272Z,4.47
2019-05-21T05:50:47.221Z,4.42
2019-05-21T05:53:17.126Z,3.77
2019-05-21T05:55:46.912Z,5.10
2019-05-21T05:58:16.819Z,4.10
2019-05-21T06:00:47.125Z,4.70
2019-05-21T06:03:17.052Z,4.53
2019-05-21T06:05:46.879Z,4.50
2019-05-21T06:08:16.743Z,3.98
2019-05-21T06:10:46.556Z,4.28
2019-05-21T06:13:16.396Z,3.92
2019-05-21T06:15:47.198Z,3.62
2019-05-21T06:18:17.103Z,3.87
2019-05-21T06:20:47.514Z,4.08
2019-05-21T06:23:18.094Z,4.05
2019-05-21T06:25:47.988Z,3.92
2019-05-21T06:28:17.765Z,4.42
2019-05-21T06:30:47.701Z,3.87
2019-05-21T06:33:18.753Z,4.15
2019-05-21T06:35:48.791Z,3.95
2019-05-21T06:38:20.017Z,4.40
2019-05-21T06:40:49.854Z,4.90
2019-05-21T06:43:20.800Z,5.30
2019-05-21T06:45:51.404Z,5.00
2019-05-21T06:48:22.410Z,4.60
2019-05-21T06:50:53.123Z,4.62
2019-05-21T06:53:23.686Z,4.37
2019-05-21T06:55:55.649Z,4.78
2019-05-21T06:58:26.166Z,4.33
2019-05-21T07:00:57.520Z,4.60
2019-05-21T07:03:29.426Z,5.28
2019-05-21T07:06:00.092Z,4.75
2019-05-21T07:08:34.984Z,4.62
2019-05-21T07:11:04.420Z,4.87
2019-05-21T07:13:35.404Z,4.60
2019-05-21T07:16:06.530Z,4.62
2019-05-21T07:18:41.217Z,4.40
2019-05-21T07:21:09.950Z,4.42
2019-05-21T07:23:41.775Z,4.37
2019-05-21T07:26:12.448Z,4.40
2019-05-21T07:28:42.963Z,4.20
2019-05-21T07:31:17.263Z,4.28
2019-05-21T07:33:46.219Z,4.60
2019-05-21T07:36:16.753Z,4.33
2019-05-21T07:38:53.197Z,4.28
2019-05-21T07:41:20.443Z,3.98
2019-05-21T07:43:51.071Z,4.80
2019-05-21T07:46:22.157Z,4.50
2019-05-21T07:48:54.107Z,3.75
2019-05-21T07:51:25.605Z,4.70
2019-05-21T07:53:56.355Z,4.40
2019-05-21T07:56:27.078Z,4.20
2019-05-21T07:58:57.019Z,4.22
2019-05-21T08:01:27.305Z,4.20
2019-05-21T08:03:57.079Z,4.50
2019-05-21T08:06:27.395Z,4.12
2019-05-21T08:09:12.660Z,4.20
2019-05-21T08:11:28.703Z,4.42
2019-05-21T08:13:58.870Z,4.05
2019-05-21T08:16:28.684Z,4.05
2019-05-21T08:18:58.528Z,4.50
2019-05-21T08:21:28.415Z,4.25
2019-05-21T08:23:59.004Z,4.58
2019-05-21T08:26:29.686Z,4.67
2019-05-21T08:29:00.282Z,4.33
2019-05-21T08:31:30.836Z,4.08
2019-05-21T08:34:02.445Z,3.87
2019-05-21T08:36:33.081Z,5.03
2019-05-21T08:39:05.671Z,4.10
2019-05-21T08:41:36.424Z,4.20
2019-05-21T08:44:07.065Z,4.25
2019-05-21T08:46:37.725Z,3.95
2019-05-21T08:49:08.337Z,4.28
2019-05-21T08:51:38.950Z,4.12
2019-05-21T08:54:09.530Z,4.33
2019-05-21T08:56:40.259Z,4.28
2019-05-21T08:59:10.127Z,3.95
2019-05-21T09:01:40.124Z,4.25
2019-05-21T09:04:09.906Z,4.40
2019-05-21T09:06:39.748Z,4.50
2019-05-21T09:09:09.530Z,4.67
2019-05-21T09:11:39.442Z,4.45
2019-05-21T09:14:09.946Z,4.62
2019-05-21T09:16:41.058Z,4.50
2019-05-21T09:19:10.952Z,4.55
2019-05-21T09:21:41.339Z,4.97
2019-05-21T09:24:11.191Z,4.83
2019-05-21T09:26:41.740Z,4.78
2019-05-21T09:29:12.425Z,4.60
2019-05-21T09:31:43.083Z,4.20
2019-05-21T09:34:13.015Z,4.60
2019-05-21T09:36:43.588Z,4.40
2019-05-21T09:39:14.178Z,4.60
2019-05-21T09:41:45.797Z,5.10
2019-05-21T09:44:16.489Z,4.55
2019-05-21T09:46:46.405Z,4.60
2019-05-21T09:49:16.340Z,4.83
2019-05-21T09:51:47.548Z,4.60
2019-05-21T09:54:17.484Z,4.87
2019-05-21T09:56:47.354Z,4.87
2019-05-21T09:59:24.108Z,4.45
2019-05-21T10:01:57.730Z,4.50
2019-05-21T10:04:28.476Z,4.60
2019-05-21T10:06:59.090Z,4.53
2019-05-21T10:09:29.067Z,4.47
2019-05-21T10:11:58.971Z,4.55
2019-05-21T10:14:29.440Z,4.62
2019-05-21T10:16:59.353Z,4.12
2019-05-21T10:19:30.918Z,4.00
2019-05-21T10:22:01.488Z,4.80
2019-05-21T10:24:32.121Z,4.30
2019-05-21T10:27:03.522Z,4.10
2019-05-21T10:29:34.362Z,4.35
2019-05-21T10:32:04.996Z,4.37
2019-05-21T10:34:35.645Z,4.12
2019-05-21T10:37:05.758Z,4.50
2019-05-21T10:39:35.629Z,4.25
2019-05-21T10:42:05.840Z,4.30
2019-05-21T10:44:35.801Z,3.90
2019-05-21T10:47:06.840Z,3.92
2019-05-21T10:49:37.287Z,3.90
2019-05-21T10:52:07.163Z,3.95
2019-05-21T10:54:37.012Z,4.60
2019-05-21T10:57:06.940Z,4.58
2019-05-21T10:59:37.873Z,4.33
2019-05-21T11:02:18.602Z,4.50
2019-05-21T11:04:53.404Z,4.62
2019-05-21T11:07:23.653Z,5.05
2019-05-21T11:09:53.411Z,4.85
2019-05-21T11:12:23.301Z,4.78
2019-05-21T11:14:53.214Z,5.05
2019-05-21T11:17:23.183Z,4.70
2019-05-21T11:19:52.966Z,4.80
2019-05-21T11:22:22.887Z,4.87
2019-05-21T11:24:53.804Z,4.80
2019-05-21T11:27:23.736Z,4.42
2019-05-21T11:29:53.542Z,4.12
2019-05-21T11:32:25.178Z,4.35
2019-05-21T11:34:56.041Z,4.20
2019-05-21T11:37:25.980Z,4.50
2019-05-21T11:39:56.390Z,4.20
2019-05-21T11:42:27.867Z,4.17
2019-05-21T11:44:57.749Z,4.10
2019-05-21T11:47:27.560Z,4.55
2019-05-21T11:49:57.445Z,4.08
2019-05-21T11:52:27.241Z,4.60
2019-05-21T11:54:57.161Z,4.22
2019-05-21T11:57:27.636Z,4.53
2019-05-21T11:59:57.564Z,4.53
2019-05-21T12:02:27.428Z,4.70
2019-05-21T12:04:57.318Z,4.83
2019-05-21T12:07:27.213Z,4.30
2019-05-21T12:09:57.080Z,4.53
2019-05-21T12:12:28.144Z,4.78
2019-05-21T12:14:59.104Z,4.47
2019-05-21T12:17:28.958Z,4.50
2019-05-21T12:19:59.856Z,4.55
2019-05-21T12:22:29.793Z,4.90
2019-05-21T12:24:59.685Z,4.65
2019-05-21T12:27:29.520Z,4.85
2019-05-21T12:29:59.351Z,4.58
2019-05-21T12:32:29.165Z,4.53
2019-05-21T12:34:59.503Z,4.72
2019-05-21T12:37:29.301Z,4.33
2019-05-21T12:40:00.240Z,4.53
2019-05-21T12:42:30.146Z,4.40
2019-05-21T12:45:00.088Z,4.97
2019-05-21T12:47:29.967Z,4.28
2019-05-21T12:49:59.916Z,4.67
2019-05-21T12:52:29.982Z,4.55
2019-05-21T12:54:59.852Z,4.50
2019-05-21T12:57:29.792Z,4.35
2019-05-21T12:59:59.654Z,4.67
2019-05-21T13:02:29.530Z,4.83
2019-05-21T13:05:00.699Z,4.83
2019-05-21T13:07:30.628Z,4.92
2019-05-21T13:10:00.475Z,4.80
2019-05-21T13:12:30.610Z,4.87
2019-05-21T13:15:00.546Z,4.72
2019-05-21T13:17:30.432Z,5.00
2019-05-21T13:20:01.484Z,4.33
2019-05-21T13:22:31.547Z,4.40
2019-05-21T13:25:01.725Z,4.67
2019-05-21T13:27:31.669Z,4.33
2019-05-21T13:30:01.607Z,4.30
2019-05-21T13:32:32.665Z,4.37
2019-05-21T13:35:05.998Z,4.20
2019-05-21T13:37:36.403Z,4.65
2019-05-21T13:40:06.632Z,4.42
2019-05-21T13:42:37.552Z,4.55
2019-05-21T13:45:07.393Z,4.15
2019-05-21T13:47:37.824Z,4.15
2019-05-21T13:50:10.294Z,4.87
2019-05-21T13:52:40.207Z,4.92
2019-05-21T13:55:10.389Z,4.90
2019-05-21T13:57:40.397Z,4.50
2019-05-21T14:00:13.293Z,4.28
2019-05-21T14:02:43.487Z,4.25
2019-05-21T14:05:13.567Z,4.40
2019-05-21T14:07:43.413Z,4.00
2019-05-21T14:10:18.191Z,4.37
2019-05-21T14:12:45.454Z,4.67
2019-05-21T14:15:15.292Z,4.65
2019-05-21T14:17:46.428Z,3.77
2019-05-21T14:20:16.423Z,4.17
2019-05-21T14:22:46.293Z,4.15
2019-05-21T14:25:16.581Z,3.62
2019-05-21T14:27:46.476Z,4.70
2019-05-21T14:30:16.518Z,3.70
2019-05-21T14:32:46.333Z,3.80
2019-05-21T14:35:16.241Z,3.87
2019-05-21T14:37:46.112Z,4.55
2019-05-21T14:40:30.404Z,5.00
2019-05-21T14:42:59.460Z,5.20
2019-05-21T14:45:19.488Z,5.30
2019-05-21T14:47:49.337Z,5.22
2019-05-21T14:50:19.296Z,4.87
2019-05-21T14:52:52.184Z,5.33
2019-05-21T14:55:20.876Z,4.80
2019-05-21T14:57:52.710Z,4.90
2019-05-21T15:00:28.008Z,5.20
2019-05-21T15:02:59.525Z,5.37
2019-05-21T15:05:29.603Z,5.37
2019-05-21T15:07:59.436Z,5.35
2019-05-21T15:10:29.321Z,4.35
2019-05-21T15:13:05.295Z,4.70
2019-05-21T15:15:32.239Z,4.90
2019-05-21T15:18:02.168Z,4.55
2019-05-21T15:20:54.075Z,5.50
2019-05-21T15:23:24.151Z,4.90
2019-05-21T15:25:56.336Z,4.67
2019-05-21T15:28:26.339Z,4.97
2019-05-21T15:30:56.237Z,4.28
2019-05-21T15:33:26.145Z,4.75
2019-05-21T15:35:56.041Z,4.35
2019-05-21T15:38:25.925Z,4.67
2019-05-21T15:41:09.501Z,4.60
2019-05-21T15:43:29.870Z,4.15
2019-05-21T15:45:59.665Z,4.60
2019-05-21T15:48:29.582Z,4.12
2019-05-21T15:50:59.442Z,4.67
2019-05-21T15:53:29.282Z,4.50
2019-05-21T15:55:59.114Z,4.22
2019-05-21T15:58:30.101Z,4.87
2019-05-21T16:00:59.946Z,4.30
2019-05-21T16:03:29.918Z,4.35
2019-05-21T16:05:59.840Z,4.70
2019-05-21T16:08:31.181Z,4.45
2019-05-21T16:11:01.065Z,4.10
2019-05-21T16:13:31.110Z,4.20
2019-05-21T16:16:01.224Z,4.40
2019-05-21T16:18:31.172Z,4.60
2019-05-21T16:21:01.056Z,4.60
2019-05-21T16:23:31.035Z,4.67
2019-05-21T16:26:01.507Z,4.35
2019-05-21T16:28:31.685Z,4.45
2019-05-21T16:31:01.633Z,4.53
2019-05-21T16:33:31.675Z,4.65
2019-05-21T16:36:01.490Z,4.75
2019-05-21T16:38:31.562Z,4.90
2019-05-21T16:41:01.453Z,4.72
2019-05-21T16:43:31.331Z,4.70
2019-05-21T16:46:01.163Z,4.83
2019-05-21T16:48:31.159Z,4.70
2019-05-21T16:51:04.496Z,5.15
2019-05-21T16:53:34.345Z,4.60
2019-05-21T16:56:04.378Z,5.30
2019-05-21T16:58:34.745Z,4.97
2019-05-21T17:01:06.496Z,4.90
2019-05-21T17:03:37.479Z,4.47
2019-05-21T17:06:07.511Z,5.22
2019-05-21T17:08:37.476Z,4.80
2019-05-21T17:11:07.354Z,5.22
2019-05-21T17:13:37.648Z,4.10
2019-05-21T17:16:07.621Z,5.03
2019-05-21T17:18:37.446Z,4.42
2019-05-21T17:21:08.149Z,4.58
2019-05-21T17:23:38.114Z,4.47
2019-05-21T17:26:08.076Z,4.80
2019-05-21T17:28:38.066Z,5.20
2019-05-21T17:31:08.072Z,7.15
2019-05-21T17:33:40.428Z,7.35
2019-05-21T17:36:10.437Z,6.42
2019-05-21T17:38:40.468Z,5.42
2019-05-21T17:41:10.633Z,5.75
2019-05-21T17:43:40.653Z,5.67
2019-05-21T17:46:10.580Z,4.12
2019-05-21T17:48:40.894Z,5.05
2019-05-21T17:51:11.084Z,4.22
2019-05-21T17:53:42.035Z,5.35
2019-05-21T17:56:12.956Z,5.28
2019-05-21T17:58:43.768Z,5.42
2019-05-21T18:01:15.666Z,5.00
2019-05-21T18:03:46.234Z,4.65
2019-05-21T18:06:16.129Z,4.90
2019-05-21T18:08:47.080Z,4.83
2019-05-21T18:11:18.632Z,4.28
2019-05-21T18:13:49.326Z,4.90
2019-05-21T18:16:19.814Z,4.97
2019-05-21T18:18:50.549Z,5.45
2019-05-21T18:21:21.666Z,5.10
2019-05-21T18:23:52.504Z,5.30
2019-05-21T18:26:22.724Z,5.30
2019-05-21T18:28:53.054Z,6.55
2019-05-21T18:31:23.112Z,5.92
2019-05-21T18:33:53.877Z,5.53
2019-05-21T18:36:24.235Z,5.92
2019-05-21T18:38:55.580Z,5.92
2019-05-21T18:41:25.576Z,6.85
2019-05-21T18:43:55.558Z,7.28
2019-05-21T18:46:25.654Z,7.25
2019-05-21T18:48:55.969Z,6.50
2019-05-21T18:51:26.133Z,7.05
2019-05-21T18:53:56.025Z,7.05
2019-05-21T18:56:26.336Z,6.45
2019-05-21T18:58:56.601Z,7.85
2019-05-21T19:01:29.442Z,6.20
2019-05-21T19:03:59.508Z,5.62
2019-05-21T19:06:29.644Z,6.62
2019-05-21T19:08:59.553Z,6.50
2019-05-21T19:11:29.985Z,6.70
2019-05-21T19:14:01.191Z,5.92
2019-05-21T19:16:32.202Z,5.20
2019-05-21T19:19:02.113Z,5.25
2019-05-21T19:21:32.122Z,4.85
2019-05-21T19:24:02.316Z,5.70
2019-05-21T19:26:33.788Z,5.00
2019-05-21T19:29:07.401Z,5.72
2019-05-21T19:31:36.103Z,5.03
2019-05-21T19:34:06.447Z,5.50
2019-05-21T19:36:36.744Z,5.60
2019-05-21T19:39:07.557Z,5.75
2019-05-21T19:41:38.510Z,5.90
2019-05-21T19:44:08.411Z,5.95
2019-05-21T19:46:38.269Z,5.85
2019-05-21T19:49:09.182Z,6.20
2019-05-21T19:51:39.854Z,6.10
2019-05-21T19:54:09.887Z,5.72
2019-05-21T19:56:39.815Z,5.80
2019-05-21T19:59:09.826Z,5.80
2019-05-21T20:01:45.629Z,5.65
2019-05-21T20:04:18.077Z,5.80
2019-05-21T20:06:48.018Z,6.12
2019-05-21T20:09:21.752Z,5.90
2019-05-21T20:11:52.074Z,6.17
2019-05-21T20:14:21.987Z,5.75
2019-05-21T20:16:51.941Z,5.70
2019-05-21T20:19:22.528Z,6.20
2019-05-21T20:21:53.203Z,6.30
2019-05-21T20:24:24.064Z,6.47
2019-05-21T20:26:54.264Z,6.00
2019-05-21T20:29:25.863Z,6.60
2019-05-21T20:31:56.159Z,6.53
2019-05-21T20:34:28.166Z,6.08
2019-05-21T20:36:58.069Z,6.40
2019-05-21T20:39:33.036Z,6.85
2019-05-21T20:42:02.992Z,6.35
2019-05-21T20:44:33.615Z,6.53
2019-05-21T20:47:06.775Z,6.80
2019-05-21T20:49:37.296Z,6.67
2019-05-21T20:52:18.113Z,6.20
2019-05-21T20:54:42.210Z,6.70
2019-05-21T20:57:13.642Z,6.90
2019-05-21T20:59:43.973Z,7.03
2019-05-21T21:02:14.821Z,7.40
2019-05-21T21:04:45.293Z,7.62
2019-05-21T21:07:16.108Z,7.80
2019-05-21T21:09:46.073Z,8.00
2019-05-21T21:12:17.166Z,7.75
2019-05-21T21:14:48.763Z,8.88
2019-05-21T21:17:18.920Z,8.55
2019-05-21T21:19:50.964Z,8.05
2019-05-21T21:22:20.768Z,7.95
2019-05-21T21:24:50.942Z,8.40
2019-05-21T21:27:21.080Z,9.05
2019-05-21T21:29:50.981Z,8.80
2019-05-21T21:32:21.000Z,9.03
2019-05-21T21:34:50.956Z,9.10
2019-05-21T21:37:21.539Z,8.55
2019-05-21T21:39:51.627Z,8.83
2019-05-21T21:42:21.532Z,8.80
2019-05-21T21:44:51.990Z,9.15
2019-05-21T21:47:23.916Z,9.88
2019-05-21T21:49:54.047Z,9.18
2019-05-21T21:52:23.896Z,9.00
2019-05-21T21:54:54.868Z,9.60
2019-05-21T21:57:24.752Z,10.43
2019-05-21T21:59:55.869Z,10.40
2019-05-21T22:02:27.441Z,10.30
2019-05-21T22:04:59.501Z,10.98
2019-05-21T22:07:29.876Z,10.68
2019-05-21T22:09:59.924Z,11.00
2019-05-21T22:12:31.373Z,11.12
2019-05-21T22:15:02.003Z,11.25
2019-05-21T22:17:32.192Z,11.12
2019-05-21T22:20:02.329Z,12.20
2019-05-21T22:22:33.192Z,13.00
2019-05-21T22:25:03.233Z,10.58
2019-05-21T22:27:33.745Z,11.28
2019-05-21T22:30:03.829Z,10.82
2019-05-21T22:32:34.200Z,11.30
2019-05-21T22:35:04.183Z,11.05
2019-05-21T22:37:35.032Z,11.03
2019-05-21T22:40:06.688Z,11.60
2019-05-21T22:42:38.132Z,11.93
2019-05-21T22:45:10.311Z,11.95
2019-05-21T22:47:40.349Z,11.38
2019-05-21T22:50:10.189Z,11.48
2019-05-21T22:52:39.970Z,11.65
2019-05-21T22:55:10.165Z,11.85
2019-05-21T22:57:39.995Z,11.80
2019-05-21T23:00:09.945Z,12.88
2019-05-21T23:02:40.005Z,12.70
2019-05-21T23:05:10.858Z,12.68
2019-05-21T23:07:42.445Z,11.83
2019-05-21T23:10:14.117Z,12.43
2019-05-21T23:12:45.409Z,12.55
2019-05-21T23:15:24.933Z,12.90
2019-05-21T23:18:09.892Z,12.03
2019-05-21T23:20:43.353Z,11.97
2019-05-21T23:23:15.623Z,12.53
2019-05-21T23:25:49.363Z,12.53
2019-05-21T23:28:20.533Z,11.80
2019-05-21T23:30:52.477Z,12.20
2019-05-21T23:33:23.844Z,12.82
2019-05-21T23:35:54.557Z,12.20
2019-05-21T23:38:25.326Z,12.03
2019-05-21T23:40:56.917Z,12.60
2019-05-21T23:43:27.801Z,11.68
2019-05-21T23:45:58.779Z,12.60
2019-05-21T23:48:29.669Z,12.05
2019-05-21T23:51:00.378Z,12.73
2019-05-21T23:53:31.468Z,12.90
2019-05-21T23:56:02.372Z,13.38
2019-05-21T23:58:33.880Z,12.93
